Campo di Volo "Al Ranch"

IT-0402 · Friuli Venezia Giulia, 意大利

罗盘
风向 的 风向 的 风向 到 风向 030°
风: 3 kt, 1 beaufort

添加一条跑道以查看侧风和逆风信息。

添置 跑道
0 1.000 2.000 3.000 4.000 5.000
未检测到零云
METAR LIPQ 280020Z AUTO 03003KT 360V080 9999 NCD 01/M00 Q1022

METAR Campo di Volo "Al Ranch" - IT-0402

Campo di Volo "Al Ranch"是,意大利中的小机场。 该领域的国际民航组织标志是IT-0402.

这份报告是针对2022年11月28日 01:20, 当地时间在Trieste–Friuli Venezia Giulia Airport进行的。

机场观察

风向为030°,速度为3 kt。 风向在360°和080°之间变化。

可见度为10 km 或者更多。

有未检测到零云。 没有观察到天花板。

温度为1 °C,阵风为-2 °C。 海平面上的气压为1022 hPa (QNH)。

白天

今天,太阳从07:25升起,在16:26降落。 这适用于Campo di Volo "Al Ranch",世界夏令时可能有所不同。 当地时间与世界标准时间之间的时差为+1 小时。 当前,没有夏令时有效。

公司介绍

我们没有关于这个机场的公司信息。

体会

到Vliegles.nl去找飞行课程,跳伞和其他飞行体验。 浏览页面,了解Campo di Volo "Al Ranch"附近所有可用的活动。 你也可以使用搜索功能来寻找你所在地附近的特定飞行课程、跳伞或其他飞行体验。

乌云

- NCD 未检测到零云

温度 & 天气

温度 1 °C
露点 0 °C
相对湿度 93%
风寒 -2 °C
Kp-index 2 (0-9)

白天

日出
07:23 (5:37)
中午
11:54
日落
16:24

小工具

你想在你的网站上有一个关于Campo di Volo "Al Ranch"的当前航空天气(METAR)的小部件吗?

显示HTML代码

我们和第三方通过cookies跟踪您在我们网站上的互联网行为。如果你继续,我们认为你同意我们的饼干政策